Northeast Harbor, Maine
Current Conditions -  °F | °C
As of 3:55 AM on Saturday 29 Nov 2014 (Local Time) from KBHB Reporting Station
Clear Clear  
Wind Chill:   Ceiling: Unl
Heat Index: 16°   Visibility: 10mi
Dew Point: 16°   Wind: 5mph
Humidity: 100%   Direction: 290°WNW
Pressure: 30.19"   Gusts: NA
Location:  44.29°N, 68.29°W
Report Text: KBHB 290855Z AUTO 29004KT 10SM CLR M09/M09 A3019 RMK AO1 52017
Loading
Personal Weather Stations






























Interactive Weather Map New forecast layout! Learn more

10-Day Weather Forecast

Advertisements
Track Severe Weather on mobile